createdAt,value
2023-02-13T00:01:01.000Z,0
2023-02-13T00:02:17.000Z,0
2023-02-13T00:03:33.000Z,0
2023-02-13T00:04:48.000Z,0
2023-02-13T00:06:04.000Z,0
2023-02-13T00:07:21.000Z,0
2023-02-13T00:08:37.415Z,0
2023-02-13T00:09:53.000Z,0
2023-02-13T00:11:09.000Z,0
2023-02-13T00:12:25.857Z,0
2023-02-13T00:13:41.000Z,0
2023-02-13T00:14:57.000Z,0
2023-02-13T00:16:14.000Z,0
2023-02-13T00:17:30.000Z,0
2023-02-13T00:18:46.000Z,0
2023-02-13T00:20:02.742Z,0
2023-02-13T00:21:17.000Z,0
2023-02-13T00:22:33.000Z,0
2023-02-13T00:23:49.000Z,0
2023-02-13T00:25:06.000Z,0
2023-02-13T00:26:22.000Z,0
2023-02-13T00:27:38.000Z,0
2023-02-13T00:28:54.000Z,0
2023-02-13T00:30:10.000Z,0
2023-02-13T00:31:26.000Z,0
2023-02-13T00:32:43.228Z,0
2023-02-13T00:33:59.000Z,0
2023-02-13T00:35:15.000Z,0
2023-02-13T00:36:31.000Z,0
2023-02-13T00:37:46.000Z,0
2023-02-13T00:39:02.000Z,0
2023-02-13T00:40:18.000Z,0
2023-02-13T00:41:35.000Z,0
2023-02-13T00:42:51.000Z,0
2023-02-13T00:44:07.000Z,0
2023-02-13T00:45:23.000Z,0
2023-02-13T00:46:39.000Z,0
2023-02-13T00:47:55.000Z,0
2023-02-13T00:49:11.000Z,0
2023-02-13T00:50:28.000Z,0
2023-02-13T00:51:44.000Z,0
2023-02-13T00:53:00.000Z,0
2023-02-13T00:54:15.000Z,0
2023-02-13T00:55:31.000Z,0
2023-02-13T00:56:47.000Z,0
2023-02-13T00:58:04.203Z,0
2023-02-13T00:59:20.000Z,0
2023-02-13T01:00:36.000Z,0
2023-02-13T01:01:52.000Z,0
2023-02-13T01:03:08.000Z,0
2023-02-13T01:04:24.000Z,0
2023-02-13T01:05:40.000Z,0
2023-02-13T01:06:56.000Z,0
2023-02-13T01:08:13.000Z,0
2023-02-13T01:09:29.515Z,0
2023-02-13T01:10:44.000Z,0
2023-02-13T01:12:00.830Z,0
2023-02-13T01:13:16.000Z,0
2023-02-13T01:14:32.000Z,0
2023-02-13T01:15:49.000Z,0
2023-02-13T01:17:05.000Z,0
2023-02-13T01:18:21.000Z,0
2023-02-13T01:19:37.000Z,0
2023-02-13T01:20:53.000Z,0
2023-02-13T01:22:09.000Z,0
2023-02-13T01:23:25.000Z,0
2023-02-13T01:24:42.292Z,0
2023-02-13T01:25:58.000Z,0
2023-02-13T01:27:13.000Z,0
2023-02-13T01:28:29.000Z,0
2023-02-13T01:29:45.000Z,0
2023-02-13T01:31:01.000Z,0
2023-02-13T01:32:18.195Z,0
2023-02-13T01:33:34.000Z,0
2023-02-13T01:34:50.000Z,0
2023-02-13T01:36:06.640Z,0
2023-02-13T01:37:22.000Z,0
2023-02-13T01:38:38.000Z,0
2023-02-13T01:39:54.000Z,0
2023-02-13T01:41:10.000Z,0
2023-02-13T01:42:27.000Z,0
2023-02-13T01:43:42.528Z,0
2023-02-13T01:44:58.000Z,0
2023-02-13T01:46:14.000Z,0
2023-02-13T01:47:30.000Z,0
2023-02-13T01:48:46.000Z,0
2023-02-13T01:50:03.000Z,0
2023-02-13T01:51:19.000Z,0
2023-02-13T01:52:35.000Z,0
2023-02-13T01:53:51.000Z,0
2023-02-13T01:55:07.000Z,0
2023-02-13T01:56:24.001Z,0
2023-02-13T01:57:40.161Z,0
2023-02-13T01:58:56.000Z,0
2023-02-13T02:00:11.000Z,0
2023-02-13T02:01:27.000Z,0
2023-02-13T02:02:43.000Z,0
2023-02-13T02:03:59.000Z,0
2023-02-13T02:05:15.000Z,0
2023-02-13T02:06:31.000Z,0
2023-02-13T02:07:48.000Z,0
2023-02-13T02:09:04.000Z,0
2023-02-13T02:10:20.000Z,0
2023-02-13T02:11:36.000Z,0
2023-02-13T02:12:52.000Z,0
2023-02-13T02:14:08.000Z,0
2023-02-13T02:15:24.000Z,0
2023-02-13T02:16:40.000Z,0
2023-02-13T02:17:56.000Z,0
2023-02-13T02:19:12.000Z,0
2023-02-13T02:20:28.824Z,0
2023-02-13T02:21:44.000Z,0
2023-02-13T02:23:00.000Z,0
2023-02-13T02:24:16.000Z,0
2023-02-13T02:25:32.000Z,0
2023-02-13T02:26:48.000Z,0
2023-02-13T02:28:04.000Z,0
2023-02-13T02:29:20.000Z,0
2023-02-13T02:30:36.000Z,0
2023-02-13T02:31:52.000Z,0
2023-02-13T02:33:09.000Z,0
2023-02-13T02:34:25.000Z,0
2023-02-13T02:35:41.000Z,0
2023-02-13T02:36:57.000Z,0
2023-02-13T02:38:13.000Z,0
2023-02-13T02:39:29.000Z,0
2023-02-13T02:40:44.000Z,0
2023-02-13T02:42:01.000Z,0
2023-02-13T02:43:17.503Z,0
2023-02-13T02:44:33.656Z,0
2023-02-13T02:45:49.000Z,0
2023-02-13T02:47:05.000Z,0
2023-02-13T02:48:21.000Z,0
2023-02-13T02:49:38.000Z,0
2023-02-13T02:50:54.000Z,0
2023-02-13T02:52:10.000Z,0
2023-02-13T02:53:26.000Z,0
2023-02-13T02:54:42.000Z,0
2023-02-13T02:55:58.000Z,0
2023-02-13T02:57:14.143Z,0
2023-02-13T02:58:30.000Z,0
2023-02-13T02:59:46.000Z,0
2023-02-13T03:01:02.579Z,0
2023-02-13T03:02:18.000Z,0
2023-02-13T03:03:34.000Z,0
2023-02-13T03:04:51.024Z,0
2023-02-13T03:06:06.000Z,0
2023-02-13T03:07:23.000Z,0
2023-02-13T03:08:39.460Z,0
2023-02-13T03:09:55.000Z,0
2023-02-13T03:11:11.754Z,0
2023-02-13T03:12:27.000Z,0
2023-02-13T03:13:42.000Z,0
2023-02-13T03:14:58.000Z,0
2023-02-13T03:16:15.354Z,0
2023-02-13T03:17:31.000Z,0
2023-02-13T03:18:47.000Z,0
2023-02-13T03:20:03.000Z,0
2023-02-13T03:21:19.000Z,0
2023-02-13T03:22:35.000Z,0
2023-02-13T03:23:52.243Z,0
2023-02-13T03:25:08.000Z,0
2023-02-13T03:26:24.000Z,0
2023-02-13T03:27:40.000Z,0
2023-02-13T03:28:56.000Z,0
2023-02-13T03:30:11.989Z,0
2023-02-13T03:31:27.000Z,0
2023-02-13T03:32:44.000Z,0
2023-02-13T03:34:00.431Z,0
2023-02-13T03:35:16.000Z,0
2023-02-13T03:36:32.000Z,0
2023-02-13T03:37:48.000Z,0
2023-02-13T03:39:04.000Z,0
2023-02-13T03:40:20.000Z,0
2023-02-13T03:41:37.000Z,0
2023-02-13T03:42:53.000Z,0
2023-02-13T03:44:09.000Z,0
2023-02-13T03:45:25.000Z,0
2023-02-13T03:46:40.000Z,0
2023-02-13T03:47:56.000Z,0
2023-02-13T03:49:12.000Z,0
2023-02-13T03:50:29.000Z,0
2023-02-13T03:51:45.000Z,0
2023-02-13T03:53:01.000Z,0
2023-02-13T03:54:17.000Z,0
2023-02-13T03:55:33.000Z,0
2023-02-13T03:56:50.093Z,0
2023-02-13T03:58:06.000Z,0
2023-02-13T03:59:22.000Z,0
2023-02-13T04:00:38.000Z,0
2023-02-13T04:01:54.000Z,0
2023-02-13T04:03:09.000Z,0
2023-02-13T04:04:25.000Z,0
2023-02-13T04:05:41.000Z,0
2023-02-13T04:06:58.000Z,0
2023-02-13T04:08:14.000Z,0
2023-02-13T04:09:30.000Z,0
2023-02-13T04:10:46.000Z,0
2023-02-13T04:12:02.000Z,0
2023-02-13T04:13:18.000Z,0
2023-02-13T04:14:34.000Z,0
2023-02-13T04:15:51.000Z,0
2023-02-13T04:17:07.000Z,0
2023-02-13T04:18:23.000Z,0
2023-02-13T04:19:38.770Z,0
2023-02-13T04:20:54.915Z,0
2023-02-13T04:22:10.000Z,0
2023-02-13T04:23:26.000Z,0
2023-02-13T04:24:43.356Z,0
2023-02-13T04:25:59.000Z,0
2023-02-13T04:27:15.652Z,0
2023-02-13T04:28:31.000Z,0
2023-02-13T04:29:47.000Z,0
2023-02-13T04:31:03.000Z,0
2023-02-13T04:32:20.000Z,0
2023-02-13T04:33:36.000Z,0
2023-02-13T04:34:52.000Z,0
2023-02-13T04:36:07.000Z,0
2023-02-13T04:37:23.000Z,0
2023-02-13T04:38:39.000Z,0
2023-02-13T04:39:55.000Z,0
2023-02-13T04:41:12.000Z,0
2023-02-13T04:42:28.000Z,0
2023-02-13T04:43:44.000Z,0
2023-02-13T04:45:00.000Z,0
2023-02-13T04:46:16.000Z,0
2023-02-13T04:47:32.000Z,0
2023-02-13T04:48:49.173Z,0
2023-02-13T04:50:05.000Z,0
2023-02-13T04:51:21.000Z,0
2023-02-13T04:52:36.000Z,0
2023-02-13T04:53:52.000Z,0
2023-02-13T04:55:08.000Z,0
2023-02-13T04:56:24.000Z,0
2023-02-13T04:57:41.213Z,0
2023-02-13T04:58:57.000Z,0
2023-02-13T05:00:13.000Z,0
2023-02-13T05:01:29.000Z,0
2023-02-13T05:02:45.803Z,0
2023-02-13T05:04:01.000Z,0
2023-02-13T05:05:17.000Z,0
2023-02-13T05:06:34.000Z,0
2023-02-13T05:07:50.000Z,0
2023-02-13T05:09:05.000Z,0
2023-02-13T05:10:21.000Z,0
2023-02-13T05:11:37.000Z,0
2023-02-13T05:12:53.000Z,0
2023-02-13T05:14:09.000Z,0
2023-02-13T05:15:26.287Z,0
2023-02-13T05:16:42.000Z,0
2023-02-13T05:17:58.000Z,0
2023-02-13T05:19:14.000Z,0
2023-02-13T05:20:30.874Z,0
2023-02-13T05:21:46.000Z,0
2023-02-13T05:23:02.000Z,0
2023-02-13T05:24:19.315Z,0
2023-02-13T05:25:34.000Z,0
2023-02-13T05:26:50.000Z,0
2023-02-13T05:28:06.000Z,0
2023-02-13T05:29:22.000Z,0
2023-02-13T05:30:38.000Z,0
2023-02-13T05:31:54.000Z,0
2023-02-13T05:33:11.000Z,0
2023-02-13T05:34:27.000Z,0
2023-02-13T05:35:43.000Z,0
2023-02-13T05:36:59.000Z,0
2023-02-13T05:38:15.000Z,0
2023-02-13T05:39:31.000Z,0
2023-02-13T05:40:48.239Z,0
2023-02-13T05:42:03.000Z,0
2023-02-13T05:43:19.000Z,0
2023-02-13T05:44:35.697Z,0
2023-02-13T05:45:51.000Z,0
2023-02-13T05:47:07.000Z,0
2023-02-13T05:48:24.141Z,0
2023-02-13T05:49:40.289Z,0
2023-02-13T05:50:56.436Z,0
2023-02-13T05:52:12.000Z,0
2023-02-13T05:53:28.728Z,0
2023-02-13T05:54:44.000Z,0
2023-02-13T05:56:00.000Z,0
2023-02-13T05:57:17.168Z,0
2023-02-13T05:58:32.000Z,0
2023-02-13T05:59:48.481Z,0
2023-02-13T06:01:04.623Z,0
2023-02-13T06:02:20.771Z,0
2023-02-13T06:03:36.000Z,0
2023-02-13T06:04:52.000Z,0
2023-02-13T06:06:08.000Z,0
2023-02-13T06:07:25.000Z,0
2023-02-13T06:08:41.000Z,0
2023-02-13T06:09:57.654Z,0
2023-02-13T06:11:13.000Z,0
2023-02-13T06:12:29.000Z,0
2023-02-13T06:13:45.000Z,0
2023-02-13T06:15:01.258Z,0
2023-02-13T06:16:17.000Z,0
2023-02-13T06:17:33.000Z,0
2023-02-13T06:18:49.698Z,0
2023-02-13T06:20:05.000Z,0
2023-02-13T06:21:21.994Z,0
2023-02-13T06:22:37.000Z,0
2023-02-13T06:23:54.000Z,4
2023-02-13T06:25:10.439Z,0
2023-02-13T06:26:26.000Z,0
2023-02-13T06:27:42.000Z,4
2023-02-13T06:28:58.878Z,4
2023-02-13T06:30:15.028Z,0
2023-02-13T06:31:29.000Z,4
2023-02-13T06:32:46.351Z,4
2023-02-13T06:34:02.000Z,4
2023-02-13T06:35:18.000Z,4
2023-02-13T06:36:34.000Z,8
2023-02-13T06:37:50.949Z,4
2023-02-13T06:39:05.000Z,8
2023-02-13T06:40:22.000Z,8
2023-02-13T06:41:38.000Z,8
2023-02-13T06:42:54.000Z,12
2023-02-13T06:44:10.678Z,12
2023-02-13T06:45:26.000Z,16
2023-02-13T06:46:42.978Z,16
2023-02-13T06:47:59.126Z,20
2023-02-13T06:49:15.000Z,20
2023-02-13T06:50:31.000Z,24
2023-02-13T06:51:47.562Z,24
2023-02-13T06:53:03.000Z,28
2023-02-13T06:54:19.000Z,32
2023-02-13T06:55:35.013Z,32
2023-02-13T06:56:51.155Z,36
2023-02-13T06:58:07.000Z,44
2023-02-13T06:59:23.000Z,44
2023-02-13T07:00:39.000Z,48
2023-02-13T07:01:55.740Z,48
2023-02-13T07:03:11.000Z,52
2023-02-13T07:04:27.000Z,52
2023-02-13T07:05:43.000Z,56
2023-02-13T07:07:00.000Z,60
2023-02-13T07:08:16.465Z,64
2023-02-13T07:09:32.000Z,68
2023-02-13T07:10:48.000Z,76
2023-02-13T07:12:03.000Z,76
2023-02-13T07:13:20.066Z,84
2023-02-13T07:14:35.000Z,88
2023-02-13T07:15:52.000Z,92
2023-02-13T07:17:08.505Z,96
2023-02-13T07:18:24.000Z,100
2023-02-13T07:19:40.000Z,104
2023-02-13T07:20:56.000Z,108
2023-02-13T07:22:12.000Z,108
2023-02-13T07:23:29.228Z,112
2023-02-13T07:24:45.000Z,128
2023-02-13T07:26:01.000Z,140
2023-02-13T07:27:17.000Z,144
2023-02-13T07:28:32.000Z,148
2023-02-13T07:29:48.000Z,160
2023-02-13T07:31:04.000Z,160
2023-02-13T07:32:21.000Z,160
2023-02-13T07:33:37.000Z,164
2023-02-13T07:34:53.000Z,168
2023-02-13T07:36:09.703Z,176
2023-02-13T07:37:25.875Z,188
2023-02-13T07:38:41.000Z,192
2023-02-13T07:39:57.000Z,208
2023-02-13T07:41:14.000Z,216
2023-02-13T07:42:30.000Z,224
2023-02-13T07:43:46.000Z,240
2023-02-13T07:45:01.000Z,240
2023-02-13T07:46:17.000Z,244
2023-02-13T07:47:33.000Z,248
2023-02-13T07:48:49.000Z,252
2023-02-13T07:50:06.000Z,264
2023-02-13T07:51:22.000Z,272
2023-02-13T07:52:38.000Z,268
2023-02-13T07:53:54.755Z,268
2023-02-13T07:55:10.000Z,272
2023-02-13T07:56:26.000Z,280
2023-02-13T07:57:42.000Z,292
2023-02-13T07:58:59.000Z,316
2023-02-13T08:00:15.000Z,324
2023-02-13T08:01:30.645Z,328
2023-02-13T08:02:46.793Z,336
2023-02-13T08:04:02.000Z,348
2023-02-13T08:05:19.081Z,360
2023-02-13T08:06:34.000Z,380
2023-02-13T08:07:51.000Z,384
2023-02-13T08:09:07.000Z,392
2023-02-13T08:10:23.666Z,380
2023-02-13T08:11:39.813Z,388
2023-02-13T08:12:55.951Z,396
2023-02-13T08:14:11.000Z,392
2023-02-13T08:15:28.000Z,388
2023-02-13T08:16:44.000Z,396
2023-02-13T08:17:59.000Z,400
2023-02-13T08:19:15.000Z,404
2023-02-13T08:20:31.841Z,412
2023-02-13T08:21:47.000Z,424
2023-02-13T08:23:04.134Z,432
2023-02-13T08:24:20.000Z,436
2023-02-13T08:25:36.000Z,448
2023-02-13T08:26:52.000Z,456
2023-02-13T08:28:08.000Z,456
2023-02-13T08:29:24.000Z,464
2023-02-13T08:30:40.000Z,480
2023-02-13T08:31:56.000Z,496
2023-02-13T08:33:13.000Z,496
2023-02-13T08:34:28.000Z,492
2023-02-13T08:35:44.608Z,488
2023-02-13T08:37:00.751Z,500
2023-02-13T08:38:16.000Z,500
2023-02-13T08:39:32.818Z,524
2023-02-13T08:40:48.000Z,536
2023-02-13T08:42:05.335Z,548
2023-02-13T08:43:21.000Z,572
2023-02-13T08:44:37.000Z,592
2023-02-13T08:45:53.000Z,588
2023-02-13T08:47:09.919Z,592
2023-02-13T08:48:25.000Z,612
2023-02-13T08:49:41.000Z,644
2023-02-13T08:50:57.000Z,660
2023-02-13T08:52:13.000Z,684
2023-02-13T08:53:29.000Z,736
2023-02-13T08:54:45.000Z,788
2023-02-13T08:56:01.000Z,804
2023-02-13T08:57:18.101Z,796
2023-02-13T08:58:34.000Z,812
2023-02-13T08:59:50.000Z,820
2023-02-13T09:01:06.532Z,804
2023-02-13T09:02:22.000Z,784
2023-02-13T09:03:38.000Z,784
2023-02-13T09:04:54.000Z,808
2023-02-13T09:06:10.000Z,824
2023-02-13T09:07:26.000Z,820
2023-02-13T09:08:42.000Z,812
2023-02-13T09:09:58.574Z,828
2023-02-13T09:11:14.715Z,836
2023-02-13T09:12:30.000Z,820
2023-02-13T09:13:47.009Z,800
2023-02-13T09:15:02.000Z,796
2023-02-13T09:16:19.000Z,824
2023-02-13T09:17:35.000Z,856
2023-02-13T09:18:51.000Z,884
2023-02-13T09:20:07.000Z,944
2023-02-13T09:21:23.879Z,952
2023-02-13T09:22:39.000Z,964
2023-02-13T09:23:54.000Z,1024
2023-02-13T09:25:11.338Z,1108
2023-02-13T09:26:27.000Z,1148
2023-02-13T09:27:43.625Z,1136
2023-02-13T09:28:59.000Z,1140
2023-02-13T09:30:15.000Z,1112
2023-02-13T09:31:31.000Z,1060
2023-02-13T09:32:48.213Z,1044
2023-02-13T09:34:04.000Z,1052
2023-02-13T09:35:20.497Z,1092
2023-02-13T09:36:36.000Z,1112
2023-02-13T09:37:52.000Z,1132
2023-02-13T09:39:08.000Z,1152
2023-02-13T09:40:23.000Z,1176
2023-02-13T09:41:40.000Z,1204
2023-02-13T09:42:56.388Z,1224
2023-02-13T09:44:12.000Z,1208
2023-02-13T09:45:28.000Z,1216
2023-02-13T09:46:44.825Z,1204
2023-02-13T09:48:00.000Z,1184
2023-02-13T09:49:16.000Z,1188
2023-02-13T09:50:33.000Z,1212
2023-02-13T09:51:49.000Z,1236
2023-02-13T09:53:05.000Z,1204
2023-02-13T09:54:21.000Z,1184
2023-02-13T09:55:37.000Z,1216
2023-02-13T09:56:53.010Z,1248
2023-02-13T09:58:08.000Z,1284
2023-02-13T09:59:25.000Z,1292
2023-02-13T10:00:41.000Z,1312
2023-02-13T10:01:57.000Z,1324
2023-02-13T10:03:13.739Z,1312
2023-02-13T10:04:29.000Z,1316
2023-02-13T10:05:46.025Z,1336
2023-02-13T10:07:01.000Z,1360
2023-02-13T10:08:18.000Z,1372
2023-02-13T10:09:34.000Z,1360
2023-02-13T10:10:50.000Z,1360
2023-02-13T10:12:06.766Z,1400
2023-02-13T10:13:21.000Z,1412
2023-02-13T10:14:37.000Z,1424
2023-02-13T10:15:53.000Z,1448
2023-02-13T10:17:10.352Z,1456
2023-02-13T10:18:26.000Z,1460
2023-02-13T10:19:42.645Z,1496
2023-02-13T10:20:58.000Z,1512
2023-02-13T10:22:14.000Z,1488
2023-02-13T10:23:31.082Z,1496
2023-02-13T10:24:47.233Z,1492
2023-02-13T10:26:03.000Z,1500
2023-02-13T10:27:19.000Z,1492
2023-02-13T10:28:35.000Z,1452
2023-02-13T10:29:50.823Z,1440
2023-02-13T10:31:06.000Z,1472
2023-02-13T10:32:22.000Z,1516
2023-02-13T10:33:39.000Z,1528
2023-02-13T10:34:55.000Z,1520
2023-02-13T10:36:11.557Z,1540
2023-02-13T10:37:27.695Z,1560
2023-02-13T10:38:43.000Z,1608
2023-02-13T10:39:59.990Z,1632
2023-02-13T10:41:15.000Z,1596
2023-02-13T10:42:32.000Z,1596
2023-02-13T10:43:48.000Z,1608
2023-02-13T10:45:04.000Z,1608
2023-02-13T10:46:19.000Z,1624
2023-02-13T10:47:35.000Z,1592
2023-02-13T10:48:51.000Z,1564
2023-02-13T10:50:07.000Z,1592
2023-02-13T10:51:24.000Z,1596
2023-02-13T10:52:40.000Z,1584
2023-02-13T10:53:55.632Z,1560
2023-02-13T10:55:11.000Z,1540
2023-02-13T10:56:27.000Z,1560
2023-02-13T10:57:43.000Z,1576
2023-02-13T10:58:59.000Z,1624
2023-02-13T11:00:16.000Z,1672
2023-02-13T11:01:32.000Z,1656
2023-02-13T11:02:48.645Z,1636
2023-02-13T11:04:04.812Z,1624
2023-02-13T11:05:20.000Z,1656
2023-02-13T11:06:36.000Z,1708
2023-02-13T11:07:53.000Z,1728
2023-02-13T11:09:09.376Z,1716
2023-02-13T11:10:24.000Z,1732
2023-02-13T11:11:40.000Z,1724
2023-02-13T11:12:56.000Z,1712
2023-02-13T11:14:12.979Z,1760
2023-02-13T11:15:28.000Z,1804
2023-02-13T11:16:45.000Z,1772
2023-02-13T11:18:01.000Z,1724
2023-02-13T11:19:17.000Z,1760
2023-02-13T11:20:33.000Z,1816
2023-02-13T11:21:49.845Z,1756
2023-02-13T11:23:05.000Z,1672
2023-02-13T11:24:21.000Z,1656
2023-02-13T11:25:38.000Z,1660
2023-02-13T11:26:53.000Z,1640
2023-02-13T11:28:09.000Z,1608
2023-02-13T11:29:25.000Z,1604
2023-02-13T11:30:41.000Z,1612
2023-02-13T11:31:57.000Z,1552
2023-02-13T11:33:14.174Z,1540
2023-02-13T11:34:30.000Z,1580
2023-02-13T11:35:46.000Z,1632
2023-02-13T11:37:02.619Z,1668
2023-02-13T11:38:18.000Z,1688
2023-02-13T11:39:34.902Z,1760
2023-02-13T11:40:50.000Z,1828
2023-02-13T11:42:07.199Z,1760
2023-02-13T11:43:22.000Z,1624
2023-02-13T11:44:38.000Z,1484
2023-02-13T11:45:54.000Z,1396
2023-02-13T11:47:10.000Z,1576
2023-02-13T11:48:26.000Z,1660
2023-02-13T11:49:42.000Z,1452
2023-02-13T11:50:59.000Z,1504
2023-02-13T11:52:15.000Z,1772
2023-02-13T11:53:31.000Z,1760
2023-02-13T11:54:47.664Z,1668
2023-02-13T11:56:03.000Z,1652
2023-02-13T11:57:19.000Z,1572
2023-02-13T11:58:35.000Z,1484
2023-02-13T11:59:51.000Z,1420
2023-02-13T12:01:07.000Z,1344
2023-02-13T12:02:23.000Z,1516
2023-02-13T12:03:39.000Z,1612
2023-02-13T12:04:55.000Z,1496
2023-02-13T12:06:11.988Z,1396
2023-02-13T12:07:27.000Z,1352
2023-02-13T12:08:44.000Z,1504
2023-02-13T12:10:00.437Z,1612
2023-02-13T12:11:16.573Z,1488
2023-02-13T12:12:32.000Z,1480
2023-02-13T12:13:48.000Z,1588
2023-02-13T12:15:05.015Z,1532
2023-02-13T12:16:20.172Z,1380
2023-02-13T12:17:36.318Z,1308
2023-02-13T12:18:52.000Z,1364
2023-02-13T12:20:08.000Z,1420
2023-02-13T12:21:24.000Z,1376
2023-02-13T12:22:40.000Z,1340
2023-02-13T12:23:56.000Z,1348
2023-02-13T12:25:13.211Z,1344
2023-02-13T12:26:29.000Z,1308
2023-02-13T12:27:45.000Z,1256
2023-02-13T12:29:01.000Z,1240
2023-02-13T12:30:17.777Z,1264
2023-02-13T12:31:33.921Z,1332
2023-02-13T12:32:48.000Z,1416
2023-02-13T12:34:05.000Z,1428
2023-02-13T12:35:21.000Z,1404
2023-02-13T12:36:37.000Z,1376
2023-02-13T12:37:53.000Z,1368
2023-02-13T12:39:09.000Z,1368
2023-02-13T12:40:25.000Z,1344
2023-02-13T12:41:41.000Z,1336
2023-02-13T12:42:58.248Z,1352
2023-02-13T12:44:14.000Z,1328
2023-02-13T12:45:30.536Z,1272
2023-02-13T12:46:46.000Z,1256
2023-02-13T12:48:02.000Z,1268
2023-02-13T12:49:17.000Z,1248
2023-02-13T12:50:33.000Z,1216
2023-02-13T12:51:50.000Z,1220
2023-02-13T12:53:06.000Z,1224
2023-02-13T12:54:22.000Z,1196
2023-02-13T12:55:38.000Z,1144
2023-02-13T12:56:54.000Z,1108
2023-02-13T12:58:10.000Z,1092
2023-02-13T12:59:27.159Z,1072
2023-02-13T13:00:43.000Z,1056
2023-02-13T13:01:59.000Z,1056
2023-02-13T13:03:15.000Z,1064
2023-02-13T13:04:31.738Z,1060
2023-02-13T13:05:46.000Z,1060
2023-02-13T13:07:02.000Z,1044
2023-02-13T13:08:19.190Z,1028
2023-02-13T13:09:35.337Z,1016
2023-02-13T13:10:51.000Z,1012
2023-02-13T13:12:07.000Z,1040
2023-02-13T13:13:23.000Z,1064
2023-02-13T13:14:39.920Z,1076
2023-02-13T13:15:55.000Z,1080
2023-02-13T13:17:11.000Z,1080
2023-02-13T13:18:28.000Z,1084
2023-02-13T13:19:44.000Z,1112
2023-02-13T13:21:00.000Z,1124
2023-02-13T13:22:15.000Z,1132
2023-02-13T13:23:31.000Z,1132
2023-02-13T13:24:47.000Z,1128
2023-02-13T13:26:04.000Z,1108
2023-02-13T13:27:20.000Z,1092
2023-02-13T13:28:36.000Z,1060
2023-02-13T13:29:52.000Z,1020
2023-02-13T13:31:08.000Z,1000
2023-02-13T13:32:24.000Z,980
2023-02-13T13:33:41.123Z,956
2023-02-13T13:34:57.000Z,924
2023-02-13T13:36:13.432Z,892
2023-02-13T13:37:29.000Z,884
2023-02-13T13:38:44.000Z,876
2023-02-13T13:40:00.000Z,860
2023-02-13T13:41:17.009Z,836
2023-02-13T13:42:32.000Z,820
2023-02-13T13:43:49.000Z,808
2023-02-13T13:45:05.447Z,800
2023-02-13T13:46:21.591Z,816
2023-02-13T13:47:37.000Z,852
2023-02-13T13:48:53.000Z,888
2023-02-13T13:50:09.000Z,904
2023-02-13T13:51:26.174Z,884
2023-02-13T13:52:42.000Z,860
2023-02-13T13:53:58.000Z,856
2023-02-13T13:55:13.000Z,868
2023-02-13T13:56:29.000Z,864
2023-02-13T13:57:45.926Z,856
2023-02-13T13:59:01.000Z,848
2023-02-13T14:00:18.209Z,844
2023-02-13T14:01:34.000Z,820
2023-02-13T14:02:50.000Z,804
2023-02-13T14:04:06.000Z,816
2023-02-13T14:05:22.000Z,820
2023-02-13T14:06:38.000Z,804
2023-02-13T14:07:55.083Z,800
2023-02-13T14:09:11.000Z,796
2023-02-13T14:10:27.000Z,784
2023-02-13T14:11:42.000Z,784
2023-02-13T14:12:58.684Z,780
2023-02-13T14:14:14.000Z,756
2023-02-13T14:15:30.982Z,744
2023-02-13T14:16:46.000Z,744
2023-02-13T14:18:03.268Z,740
2023-02-13T14:19:19.000Z,764
2023-02-13T14:20:35.560Z,764
2023-02-13T14:21:51.000Z,752
2023-02-13T14:23:07.000Z,732
2023-02-13T14:24:23.996Z,712
2023-02-13T14:25:39.000Z,704
2023-02-13T14:26:56.000Z,696
2023-02-13T14:28:11.000Z,680
2023-02-13T14:29:27.000Z,676
2023-02-13T14:30:43.000Z,672
2023-02-13T14:31:59.000Z,664
2023-02-13T14:33:16.034Z,640
2023-02-13T14:34:31.000Z,600
2023-02-13T14:35:48.319Z,596
2023-02-13T14:37:04.465Z,588
2023-02-13T14:38:20.000Z,576
2023-02-13T14:39:36.000Z,572
2023-02-13T14:40:52.000Z,560
2023-02-13T14:42:08.000Z,548
2023-02-13T14:43:24.000Z,536
2023-02-13T14:44:40.000Z,528
2023-02-13T14:45:56.499Z,524
2023-02-13T14:47:12.000Z,528
2023-02-13T14:48:28.000Z,524
2023-02-13T14:49:44.000Z,528
2023-02-13T14:51:00.000Z,528
2023-02-13T14:52:17.000Z,532
2023-02-13T14:53:33.375Z,528
2023-02-13T14:54:49.000Z,508
2023-02-13T14:56:05.668Z,488
2023-02-13T14:57:21.824Z,472
2023-02-13T14:58:37.000Z,472
2023-02-13T14:59:54.105Z,480
2023-02-13T15:01:09.000Z,488
2023-02-13T15:02:25.000Z,492
2023-02-13T15:03:41.000Z,472
2023-02-13T15:04:57.700Z,436
2023-02-13T15:06:13.000Z,424
2023-02-13T15:07:29.000Z,420
2023-02-13T15:08:44.000Z,408
2023-02-13T15:10:01.304Z,388
2023-02-13T15:11:17.473Z,380
2023-02-13T15:12:33.000Z,372
2023-02-13T15:13:49.000Z,372
2023-02-13T15:15:05.000Z,368
2023-02-13T15:16:22.032Z,376
2023-02-13T15:17:37.000Z,368
2023-02-13T15:18:54.325Z,360
2023-02-13T15:20:10.000Z,344
2023-02-13T15:21:26.000Z,328
2023-02-13T15:22:42.000Z,320
2023-02-13T15:23:58.000Z,320
2023-02-13T15:25:13.000Z,312
2023-02-13T15:26:30.209Z,304
2023-02-13T15:27:46.000Z,296
2023-02-13T15:29:02.000Z,288
2023-02-13T15:30:18.661Z,280
2023-02-13T15:31:34.000Z,272
2023-02-13T15:32:50.000Z,264
2023-02-13T15:34:06.000Z,248
2023-02-13T15:35:23.000Z,236
2023-02-13T15:36:39.000Z,228
2023-02-13T15:37:55.000Z,224
2023-02-13T15:39:11.669Z,220
2023-02-13T15:40:27.000Z,220
2023-02-13T15:41:42.000Z,216
2023-02-13T15:42:58.000Z,212
2023-02-13T15:44:15.000Z,204
2023-02-13T15:45:31.000Z,196
2023-02-13T15:46:47.000Z,192
2023-02-13T15:48:03.000Z,184
2023-02-13T15:49:19.000Z,176
2023-02-13T15:50:35.000Z,164
2023-02-13T15:51:51.000Z,156
2023-02-13T15:53:08.288Z,144
2023-02-13T15:54:24.000Z,132
2023-02-13T15:55:40.000Z,128
2023-02-13T15:56:56.000Z,128
2023-02-13T15:58:11.886Z,124
2023-02-13T15:59:27.000Z,120
2023-02-13T16:00:44.174Z,116
2023-02-13T16:02:00.000Z,108
2023-02-13T16:03:16.465Z,104
2023-02-13T16:04:32.000Z,100
2023-02-13T16:05:48.000Z,96
2023-02-13T16:07:04.000Z,88
2023-02-13T16:08:20.000Z,84
2023-02-13T16:09:36.000Z,80
2023-02-13T16:10:53.338Z,76
2023-02-13T16:12:09.000Z,72
2023-02-13T16:13:25.000Z,72
2023-02-13T16:14:40.000Z,64
2023-02-13T16:15:56.939Z,60
2023-02-13T16:17:12.000Z,52
2023-02-13T16:18:29.229Z,52
2023-02-13T16:19:45.000Z,44
2023-02-13T16:21:01.000Z,44
2023-02-13T16:22:17.000Z,40
2023-02-13T16:23:33.000Z,36
2023-02-13T16:24:49.955Z,32
2023-02-13T16:26:05.000Z,32
2023-02-13T16:27:22.000Z,28
2023-02-13T16:28:38.399Z,24
2023-02-13T16:29:54.000Z,20
2023-02-13T16:31:09.000Z,20
2023-02-13T16:32:25.000Z,16
2023-02-13T16:33:41.000Z,16
2023-02-13T16:34:58.148Z,12
2023-02-13T16:36:14.000Z,12
2023-02-13T16:37:30.000Z,12
2023-02-13T16:38:46.586Z,8
2023-02-13T16:40:02.000Z,8
2023-02-13T16:41:18.000Z,4
2023-02-13T16:42:34.000Z,4
2023-02-13T16:43:50.000Z,8
2023-02-13T16:45:07.000Z,4
2023-02-13T16:46:23.000Z,0
2023-02-13T16:47:38.000Z,4
2023-02-13T16:48:54.000Z,0
2023-02-13T16:50:10.000Z,0
2023-02-13T16:51:26.000Z,4
2023-02-13T16:52:42.000Z,4
2023-02-13T16:53:59.361Z,0
2023-02-13T16:55:15.000Z,0
2023-02-13T16:56:31.000Z,0
2023-02-13T16:57:47.000Z,0
2023-02-13T16:59:03.000Z,0
2023-02-13T17:00:20.102Z,0
2023-02-13T17:01:36.242Z,0
2023-02-13T17:02:52.000Z,0
2023-02-13T17:04:07.000Z,0
2023-02-13T17:05:23.000Z,0
2023-02-13T17:06:39.000Z,0
2023-02-13T17:07:55.000Z,0
2023-02-13T17:09:11.000Z,0
2023-02-13T17:10:28.000Z,0
2023-02-13T17:11:44.000Z,0
2023-02-13T17:13:00.000Z,0
2023-02-13T17:14:16.739Z,0
2023-02-13T17:15:32.000Z,0
2023-02-13T17:16:48.000Z,0
2023-02-13T17:18:04.000Z,0
2023-02-13T17:19:21.000Z,0
2023-02-13T17:20:36.000Z,0
2023-02-13T17:21:52.000Z,0
2023-02-13T17:23:08.000Z,0
2023-02-13T17:24:24.917Z,0
2023-02-13T17:25:41.087Z,0
2023-02-13T17:26:56.000Z,0
2023-02-13T17:28:13.000Z,0
2023-02-13T17:29:29.000Z,0
2023-02-13T17:30:45.000Z,0
2023-02-13T17:32:01.000Z,0
2023-02-13T17:33:17.000Z,0
2023-02-13T17:34:33.000Z,0
2023-02-13T17:35:50.239Z,0
2023-02-13T17:37:05.000Z,0
2023-02-13T17:38:21.000Z,0
2023-02-13T17:39:37.000Z,0
2023-02-13T17:40:53.000Z,0
2023-02-13T17:42:09.000Z,0
2023-02-13T17:43:25.000Z,0
2023-02-13T17:44:42.000Z,0
2023-02-13T17:45:58.000Z,0
2023-02-13T17:47:14.000Z,0
2023-02-13T17:48:30.000Z,0
2023-02-13T17:49:46.000Z,0
2023-02-13T17:51:02.000Z,0
2023-02-13T17:52:18.000Z,0
2023-02-13T17:53:34.000Z,0
2023-02-13T17:54:50.474Z,0